createdAt,value
2018-09-15T00:00:32.317Z,0.00
2018-09-15T00:01:32.716Z,0.00
2018-09-15T00:02:33.084Z,0.00
2018-09-15T00:03:32.739Z,0.00
2018-09-15T00:04:33.076Z,0.00
2018-09-15T00:05:32.364Z,0.00
2018-09-15T00:06:32.698Z,0.00
2018-09-15T00:07:33.050Z,0.00
2018-09-15T00:08:32.754Z,0.00
2018-09-15T00:09:33.058Z,0.00
2018-09-15T00:10:32.342Z,0.00
2018-09-15T00:11:32.659Z,0.00
2018-09-15T00:12:32.643Z,0.00
2018-09-15T00:13:33.036Z,0.00
2018-09-15T00:14:33.029Z,0.00
2018-09-15T00:15:32.392Z,0.00
2018-09-15T00:16:32.653Z,0.00
2018-09-15T00:17:33.037Z,0.00
2018-09-15T00:18:34.562Z,0.00
2018-09-15T00:19:33.029Z,0.00
2018-09-15T00:20:32.282Z,0.00
2018-09-15T00:21:32.955Z,0.00
2018-09-15T00:22:33.003Z,0.00
2018-09-15T00:23:33.021Z,0.00
2018-09-15T00:24:33.120Z,0.00
2018-09-15T00:25:33.060Z,0.00
2018-09-15T00:26:33.135Z,0.00
2018-09-15T00:27:32.956Z,0.00
2018-09-15T00:28:32.973Z,0.00
2018-09-15T00:29:32.960Z,0.00
2018-09-15T00:30:34.917Z,0.00
2018-09-15T00:31:32.965Z,0.00
2018-09-15T00:32:33.039Z,0.00
2018-09-15T00:33:33.033Z,0.00
2018-09-15T00:34:32.946Z,0.00
2018-09-15T00:35:32.961Z,0.00
2018-09-15T00:36:33.057Z,0.00
2018-09-15T00:37:33.037Z,0.00
2018-09-15T00:38:33.031Z,0.00
2018-09-15T00:39:33.035Z,0.00
2018-09-15T00:40:33.039Z,0.00
2018-09-15T00:41:33.015Z,0.00
2018-09-15T00:42:33.009Z,0.00
2018-09-15T00:43:32.949Z,0.00
2018-09-15T00:44:33.032Z,0.00
2018-09-15T00:45:33.059Z,0.00
2018-09-15T00:46:32.968Z,0.00
2018-09-15T00:47:32.982Z,0.00
2018-09-15T00:48:33.048Z,0.00
2018-09-15T00:49:32.999Z,0.00
2018-09-15T00:52:06.214Z,0.00
2018-09-15T00:53:06.601Z,0.00
2018-09-15T00:55:00.599Z,0.00
2018-09-15T00:56:00.689Z,0.00
2018-09-15T00:57:54.748Z,0.00
2018-09-15T00:58:54.782Z,0.00
2018-09-15T01:00:49.199Z,0.00
2018-09-15T01:01:49.508Z,0.00
2018-09-15T01:03:46.972Z,0.00
2018-09-15T01:04:46.922Z,0.00
2018-09-15T01:05:47.543Z,0.00
2018-09-15T01:06:46.964Z,0.00
2018-09-15T01:07:47.545Z,0.00
2018-09-15T01:08:46.573Z,0.00
2018-09-15T01:09:46.949Z,0.00
2018-09-15T01:10:47.532Z,0.00
2018-09-15T01:11:46.948Z,0.00
2018-09-15T01:12:47.512Z,0.00
2018-09-15T01:13:47.504Z,0.00
2018-09-15T01:14:47.553Z,0.00
2018-09-15T01:15:47.528Z,0.00
2018-09-15T01:16:47.531Z,0.00
2018-09-15T01:17:47.525Z,0.00
2018-09-15T01:18:47.578Z,0.00
2018-09-15T01:19:47.517Z,0.00
2018-09-15T01:20:47.536Z,0.00
2018-09-15T01:21:47.571Z,0.00
2018-09-15T01:22:47.501Z,0.00
2018-09-15T01:23:47.554Z,0.00
2018-09-15T01:24:47.576Z,0.00
2018-09-15T01:25:47.527Z,0.00
2018-09-15T01:26:48.219Z,0.00
2018-09-15T01:27:47.554Z,0.00
2018-09-15T01:28:47.530Z,0.00
2018-09-15T01:29:47.594Z,0.00
2018-09-15T01:30:47.493Z,0.00
2018-09-15T01:31:47.576Z,0.00
2018-09-15T01:32:47.235Z,0.00
2018-09-15T01:33:49.128Z,0.00
2018-09-15T01:34:47.354Z,0.00
2018-09-15T01:35:49.308Z,0.00
2018-09-15T01:36:46.956Z,0.00
2018-09-15T01:37:47.436Z,0.00
2018-09-15T01:38:49.115Z,0.00
2018-09-15T01:39:47.363Z,0.00
2018-09-15T01:40:47.354Z,0.00
2018-09-15T01:41:47.347Z,0.00
2018-09-15T01:42:47.274Z,0.00
2018-09-15T01:43:47.271Z,0.00
2018-09-15T01:44:47.240Z,0.00
2018-09-15T01:45:47.129Z,0.00
2018-09-15T01:46:47.268Z,0.00
2018-09-15T01:47:47.253Z,0.00
2018-09-15T01:48:47.186Z,0.00
2018-09-15T01:49:47.149Z,0.00
2018-09-15T01:50:47.055Z,0.00
2018-09-15T01:51:47.145Z,0.00
2018-09-15T01:52:47.123Z,0.00
2018-09-15T01:53:47.064Z,0.00
2018-09-15T01:54:47.126Z,0.00
2018-09-15T01:55:47.217Z,0.00
2018-09-15T01:56:47.123Z,0.00
2018-09-15T01:57:47.114Z,0.00
2018-09-15T01:58:47.111Z,0.00
2018-09-15T01:59:47.096Z,0.00
2018-09-15T02:00:47.117Z,0.00
2018-09-15T02:01:47.194Z,0.00
2018-09-15T02:02:47.125Z,0.00
2018-09-15T02:03:46.803Z,0.00
2018-09-15T02:04:47.126Z,0.00
2018-09-15T02:05:47.086Z,0.00
2018-09-15T02:06:47.176Z,0.00
2018-09-15T02:07:47.168Z,0.00
2018-09-15T02:08:47.132Z,0.00
2018-09-15T02:09:47.197Z,0.00
2018-09-15T02:10:47.143Z,0.00
2018-09-15T02:11:47.161Z,0.00
2018-09-15T02:12:48.896Z,0.00
2018-09-15T02:13:47.186Z,0.00
2018-09-15T02:14:47.115Z,0.00
2018-09-15T02:15:49.001Z,0.00
2018-09-15T02:16:47.133Z,0.00
2018-09-15T02:18:47.127Z,0.00
2018-09-15T02:19:47.125Z,0.00
2018-09-15T02:20:47.086Z,0.00
2018-09-15T02:21:47.066Z,0.00
2018-09-15T02:22:47.205Z,0.00
2018-09-15T02:23:47.016Z,0.00
2018-09-15T02:24:47.028Z,0.00
2018-09-15T02:25:47.016Z,0.00
2018-09-15T02:26:47.050Z,0.00
2018-09-15T02:27:46.983Z,0.00
2018-09-15T02:28:48.029Z,0.00
2018-09-15T02:29:47.006Z,0.00
2018-09-15T02:30:47.738Z,0.00
2018-09-15T02:31:47.056Z,0.00
2018-09-15T02:32:47.050Z,0.00
2018-09-15T02:33:47.060Z,0.00
2018-09-15T02:34:47.054Z,0.00
2018-09-15T02:35:47.053Z,0.00
2018-09-15T02:36:47.028Z,0.00
2018-09-15T02:37:47.096Z,0.00
2018-09-15T02:38:47.097Z,0.00
2018-09-15T02:39:47.055Z,0.00
2018-09-15T02:40:47.097Z,0.00
2018-09-15T02:41:47.076Z,0.00
2018-09-15T02:42:47.021Z,0.00
2018-09-15T02:43:47.098Z,0.00
2018-09-15T02:44:47.118Z,0.00
2018-09-15T02:45:47.039Z,0.00
2018-09-15T02:46:47.056Z,0.00
2018-09-15T02:47:47.055Z,0.00
2018-09-15T02:48:47.097Z,0.00
2018-09-15T02:49:47.070Z,0.00
2018-09-15T02:50:48.883Z,0.00
2018-09-15T02:51:47.094Z,0.00
2018-09-15T02:52:49.248Z,0.00
2018-09-15T02:53:47.093Z,0.00
2018-09-15T02:54:47.360Z,0.00
2018-09-15T02:55:47.107Z,0.00
2018-09-15T02:56:49.249Z,0.00
2018-09-15T02:57:47.048Z,0.00
2018-09-15T02:58:47.005Z,0.00
2018-09-15T02:59:47.043Z,0.00
2018-09-15T03:00:46.952Z,0.00
2018-09-15T03:01:46.990Z,0.00
2018-09-15T03:02:47.071Z,0.00
2018-09-15T03:03:47.082Z,0.00
2018-09-15T03:04:47.011Z,0.00
2018-09-15T03:05:47.048Z,0.00
2018-09-15T03:06:47.056Z,0.00
2018-09-15T03:07:47.035Z,0.00
2018-09-15T03:08:47.013Z,0.00
2018-09-15T03:09:47.030Z,0.00
2018-09-15T03:10:47.081Z,0.00
2018-09-15T03:11:47.038Z,0.00
2018-09-15T03:12:47.052Z,0.00
2018-09-15T03:13:46.988Z,0.00
2018-09-15T03:14:47.046Z,0.00
2018-09-15T03:15:47.059Z,0.00
2018-09-15T03:16:47.018Z,0.00
2018-09-15T03:17:47.059Z,0.00
2018-09-15T03:18:47.109Z,0.00
2018-09-15T03:19:47.062Z,0.00
2018-09-15T03:20:47.039Z,0.00
2018-09-15T03:21:48.897Z,0.00
2018-09-15T03:22:47.052Z,0.00
2018-09-15T03:23:47.117Z,0.00
2018-09-15T03:24:47.045Z,0.00
2018-09-15T03:25:47.020Z,0.00
2018-09-15T03:26:47.066Z,0.00
2018-09-15T03:27:47.109Z,0.00
2018-09-15T03:28:49.065Z,0.00
2018-09-15T03:29:48.914Z,0.00
2018-09-15T03:30:47.044Z,0.00
2018-09-15T03:31:47.108Z,0.00
2018-09-15T03:32:47.026Z,0.00
2018-09-15T03:33:47.058Z,0.00
2018-09-15T03:34:47.028Z,0.00
2018-09-15T03:37:19.710Z,0.00
2018-09-15T03:38:19.753Z,0.00
2018-09-15T03:40:14.429Z,0.00
2018-09-15T03:41:14.933Z,0.00
2018-09-15T03:43:09.108Z,0.00
2018-09-15T03:44:09.211Z,0.00
2018-09-15T03:46:02.955Z,0.00
2018-09-15T03:47:03.291Z,0.00
2018-09-15T03:48:58.278Z,0.00
2018-09-15T03:49:58.417Z,0.00
2018-09-15T03:51:52.328Z,0.00
2018-09-15T03:52:53.070Z,0.00
2018-09-15T03:54:47.567Z,0.00
2018-09-15T03:55:47.744Z,0.00
2018-09-15T03:57:41.602Z,0.00
2018-09-15T03:58:42.357Z,0.00
2018-09-15T04:00:36.598Z,0.00
2018-09-15T04:01:36.680Z,0.00
2018-09-15T04:03:30.877Z,0.00
2018-09-15T04:04:31.285Z,0.00
2018-09-15T04:06:25.845Z,0.00
2018-09-15T04:07:26.012Z,0.00
2018-09-15T04:09:20.581Z,0.00
2018-09-15T04:10:20.168Z,0.00
2018-09-15T04:12:14.714Z,0.00
2018-09-15T04:13:14.746Z,0.00
2018-09-15T04:15:08.963Z,0.00
2018-09-15T04:16:09.341Z,0.00
2018-09-15T04:18:03.455Z,0.00
2018-09-15T04:19:03.487Z,0.00
2018-09-15T04:20:57.437Z,0.00
2018-09-15T04:21:57.717Z,0.00
2018-09-15T04:23:52.758Z,0.00
2018-09-15T04:24:52.882Z,0.00
2018-09-15T04:26:46.377Z,0.00
2018-09-15T04:27:46.553Z,0.00
2018-09-15T04:29:41.141Z,0.00
2018-09-15T04:30:41.234Z,0.00
2018-09-15T04:32:35.601Z,0.00
2018-09-15T04:33:35.928Z,0.00
2018-09-15T04:35:30.836Z,0.00
2018-09-15T04:36:31.075Z,0.00
2018-09-15T04:38:24.791Z,4.00
2018-09-15T04:39:25.199Z,4.00
2018-09-15T04:40:25.135Z,4.00
2018-09-15T04:41:25.100Z,4.00
2018-09-15T04:42:26.998Z,4.00
2018-09-15T04:43:25.176Z,8.00
2018-09-15T04:44:25.157Z,4.00
2018-09-15T04:45:25.221Z,8.00
2018-09-15T04:46:25.195Z,8.00
2018-09-15T04:47:25.169Z,12.00
2018-09-15T04:48:25.214Z,8.00
2018-09-15T04:49:27.371Z,12.00
2018-09-15T04:50:27.241Z,16.00
2018-09-15T04:51:25.179Z,16.00
2018-09-15T04:52:25.212Z,24.00
2018-09-15T04:53:25.147Z,24.00
2018-09-15T04:54:25.204Z,28.00
2018-09-15T04:55:25.206Z,32.00
2018-09-15T04:56:25.192Z,36.00
2018-09-15T04:57:25.145Z,44.00
2018-09-15T04:58:25.195Z,48.00
2018-09-15T04:59:25.239Z,56.00
2018-09-15T05:00:25.138Z,60.00
2018-09-15T05:01:25.174Z,68.00
2018-09-15T05:02:25.169Z,72.00
2018-09-15T05:03:25.165Z,80.00
2018-09-15T05:04:25.208Z,88.00
2018-09-15T05:05:25.207Z,96.00
2018-09-15T05:06:25.197Z,108.00
2018-09-15T05:07:25.386Z,116.00
2018-09-15T05:08:25.211Z,128.00
2018-09-15T05:09:25.206Z,136.00
2018-09-15T05:10:25.198Z,148.00
2018-09-15T05:11:25.196Z,160.00
2018-09-15T05:12:25.201Z,176.00
2018-09-15T05:13:25.213Z,188.00
2018-09-15T05:14:25.178Z,200.00
2018-09-15T05:15:25.184Z,212.00
2018-09-15T05:16:25.148Z,224.00
2018-09-15T05:17:25.376Z,240.00
2018-09-15T05:18:25.218Z,252.00
2018-09-15T05:19:27.052Z,268.00
2018-09-15T05:20:25.202Z,280.00
2018-09-15T05:21:25.212Z,296.00
2018-09-15T05:22:26.995Z,308.00
2018-09-15T05:23:26.999Z,324.00
2018-09-15T05:24:25.232Z,344.00
2018-09-15T05:25:25.227Z,360.00
2018-09-15T05:26:25.215Z,372.00
2018-09-15T05:27:25.194Z,388.00
2018-09-15T05:28:25.208Z,404.00
2018-09-15T05:29:25.227Z,412.00
2018-09-15T05:30:25.232Z,424.00
2018-09-15T05:31:25.173Z,444.00
2018-09-15T05:32:24.921Z,460.00
2018-09-15T05:33:24.872Z,468.00
2018-09-15T05:34:24.886Z,480.00
2018-09-15T05:35:24.968Z,484.00
2018-09-15T05:36:24.893Z,492.00
2018-09-15T05:37:24.843Z,504.00
2018-09-15T05:38:24.957Z,512.00
2018-09-15T05:39:24.840Z,524.00
2018-09-15T05:40:24.745Z,540.00
2018-09-15T05:41:24.786Z,552.00
2018-09-15T05:42:24.735Z,564.00
2018-09-15T05:43:24.849Z,576.00
2018-09-15T05:44:24.699Z,584.00
2018-09-15T05:45:25.052Z,596.00
2018-09-15T05:46:24.793Z,608.00
2018-09-15T05:47:24.846Z,616.00
2018-09-15T05:48:24.830Z,632.00
2018-09-15T05:49:24.987Z,640.00
2018-09-15T05:50:24.857Z,648.00
2018-09-15T05:51:24.917Z,660.00
2018-09-15T05:52:24.885Z,672.00
2018-09-15T05:53:24.805Z,684.00
2018-09-15T05:54:24.814Z,692.00
2018-09-15T05:55:24.787Z,700.00
2018-09-15T05:56:24.861Z,712.00
2018-09-15T05:57:24.460Z,724.00
2018-09-15T05:58:24.887Z,736.00
2018-09-15T05:59:24.888Z,744.00
2018-09-15T06:00:24.805Z,756.00
2018-09-15T06:01:24.872Z,768.00
2018-09-15T06:02:26.717Z,776.00
2018-09-15T06:03:24.856Z,788.00
2018-09-15T06:04:24.829Z,800.00
2018-09-15T06:05:30.703Z,812.00
2018-09-15T06:06:26.234Z,824.00
2018-09-15T06:07:24.817Z,832.00
2018-09-15T06:09:00.109Z,840.00
2018-09-15T06:09:24.072Z,844.00
2018-09-15T06:10:43.124Z,852.00
2018-09-15T06:12:23.197Z,860.00
2018-09-15T06:13:28.976Z,876.00
2018-09-15T06:14:23.001Z,888.00
2018-09-15T06:15:22.962Z,896.00
2018-09-15T06:16:22.951Z,912.00
2018-09-15T06:17:22.992Z,920.00
2018-09-15T06:18:22.944Z,928.00
2018-09-15T06:19:22.997Z,948.00
2018-09-15T06:20:22.973Z,964.00
2018-09-15T06:21:22.978Z,984.00
2018-09-15T06:22:22.985Z,996.00
2018-09-15T06:23:22.931Z,1008.00
2018-09-15T06:24:22.992Z,1032.00
2018-09-15T06:25:22.936Z,1064.00
2018-09-15T06:26:24.756Z,1092.00
2018-09-15T06:27:22.977Z,1112.00
2018-09-15T06:28:22.963Z,1140.00
2018-09-15T06:29:23.003Z,1184.00
2018-09-15T06:30:23.040Z,1240.00
2018-09-15T06:32:56.089Z,1292.00
2018-09-15T06:33:55.944Z,1264.00
2018-09-15T06:35:52.337Z,1156.00
2018-09-15T06:36:52.564Z,1092.00
2018-09-15T06:37:53.556Z,1084.00
2018-09-15T06:38:53.061Z,1108.00
2018-09-15T06:39:53.029Z,1192.00
2018-09-15T06:40:52.687Z,1236.00
2018-09-15T06:41:52.684Z,1316.00
2018-09-15T06:42:53.283Z,1400.00
2018-09-15T06:43:52.723Z,1456.00
2018-09-15T06:44:53.526Z,1452.00
2018-09-15T06:45:52.836Z,1368.00
2018-09-15T06:46:52.691Z,1452.00
2018-09-15T06:47:52.934Z,1416.00
2018-09-15T06:48:53.036Z,1460.00
2018-09-15T06:49:53.237Z,1512.00
2018-09-15T06:50:52.585Z,1572.00
2018-09-15T06:51:52.938Z,1692.00
2018-09-15T06:52:52.951Z,1776.00
2018-09-15T06:53:52.926Z,1828.00
2018-09-15T06:54:52.943Z,1844.00
2018-09-15T06:55:52.978Z,1812.00
2018-09-15T06:56:52.952Z,1712.00
2018-09-15T06:57:52.949Z,1704.00
2018-09-15T06:58:52.939Z,1716.00
2018-09-15T06:59:52.979Z,1672.00
2018-09-15T07:00:53.028Z,1580.00
2018-09-15T07:01:52.989Z,1480.00
2018-09-15T07:02:53.034Z,1424.00
2018-09-15T07:03:52.994Z,1304.00
2018-09-15T07:04:52.957Z,1312.00
2018-09-15T07:05:52.544Z,1352.00
2018-09-15T07:06:53.059Z,1264.00
2018-09-15T07:07:52.961Z,1280.00
2018-09-15T07:08:53.016Z,1296.00
2018-09-15T07:09:52.996Z,1384.00
2018-09-15T07:10:52.996Z,1332.00
2018-09-15T07:11:54.821Z,1416.00
2018-09-15T07:12:52.980Z,1412.00
2018-09-15T07:13:53.038Z,1420.00
2018-09-15T07:14:53.008Z,1444.00
2018-09-15T07:15:52.989Z,1460.00
2018-09-15T07:16:53.042Z,1464.00
2018-09-15T07:17:53.025Z,1472.00
2018-09-15T07:18:53.026Z,1496.00
2018-09-15T07:19:53.042Z,1544.00
2018-09-15T07:20:53.043Z,1652.00
2018-09-15T07:21:53.043Z,1796.00
2018-09-15T07:22:52.978Z,1960.00
2018-09-15T07:23:52.985Z,2080.00
2018-09-15T07:24:52.999Z,2160.00
2018-09-15T07:25:52.961Z,2236.00
2018-09-15T07:26:52.986Z,2396.00
2018-09-15T07:27:52.939Z,2596.00
2018-09-15T07:28:52.925Z,2776.00
2018-09-15T07:29:52.968Z,2820.00
2018-09-15T07:30:52.979Z,2880.00
2018-09-15T07:31:53.153Z,2932.00
2018-09-15T07:32:53.000Z,2928.00
2018-09-15T07:33:53.033Z,3004.00
2018-09-15T07:34:53.071Z,3020.00
2018-09-15T07:35:53.017Z,2904.00
2018-09-15T07:36:53.017Z,2864.00
2018-09-15T07:37:52.994Z,2860.00
2018-09-15T07:38:52.986Z,2776.00
2018-09-15T07:39:53.051Z,2784.00
2018-09-15T07:40:52.983Z,2880.00
2018-09-15T07:41:53.038Z,2932.00
2018-09-15T07:42:53.013Z,3020.00
2018-09-15T07:43:54.839Z,3120.00
2018-09-15T07:44:53.172Z,3208.00
2018-09-15T07:45:52.988Z,3248.00
2018-09-15T07:46:52.980Z,3160.00
2018-09-15T07:47:52.992Z,3040.00
2018-09-15T07:48:53.000Z,3012.00
2018-09-15T07:49:53.052Z,2924.00
2018-09-15T07:50:52.977Z,2888.00
2018-09-15T07:51:53.033Z,2808.00
2018-09-15T07:52:53.041Z,2744.00
2018-09-15T07:53:53.035Z,2700.00
2018-09-15T07:54:52.989Z,2688.00
2018-09-15T07:55:52.965Z,2748.00
2018-09-15T07:56:53.003Z,2900.00
2018-09-15T07:57:53.093Z,3152.00
2018-09-15T07:58:53.046Z,3396.00
2018-09-15T07:59:52.999Z,3700.00
2018-09-15T08:00:53.069Z,3820.00
2018-09-15T08:01:52.475Z,3964.00
2018-09-15T08:02:52.856Z,4160.00
2018-09-15T08:03:52.779Z,4324.00
2018-09-15T08:04:52.539Z,4440.00
2018-09-15T08:05:52.545Z,4480.00
2018-09-15T08:06:52.539Z,4556.00
2018-09-15T08:07:52.553Z,4524.00
2018-09-15T08:08:52.645Z,4480.00
2018-09-15T08:09:52.657Z,4372.00
2018-09-15T08:10:52.761Z,4324.00
2018-09-15T08:11:52.641Z,4316.00
2018-09-15T08:12:52.671Z,4312.00
2018-09-15T08:13:52.611Z,4360.00
2018-09-15T08:14:52.740Z,4372.00
2018-09-15T08:15:52.644Z,4320.00
2018-09-15T08:16:52.965Z,4260.00
2018-09-15T08:17:52.753Z,4240.00
2018-09-15T08:18:52.317Z,4232.00
2018-09-15T08:19:52.699Z,4220.00
2018-09-15T08:20:52.729Z,4176.00
2018-09-15T08:21:52.653Z,4184.00
2018-09-15T08:22:52.721Z,4164.00
2018-09-15T08:23:52.735Z,4128.00
2018-09-15T08:24:52.644Z,4088.00
2018-09-15T08:25:52.757Z,4080.00
2018-09-15T08:26:52.746Z,4108.00
2018-09-15T08:27:52.719Z,4132.00
2018-09-15T08:28:52.829Z,4164.00
2018-09-15T08:29:52.377Z,4128.00
2018-09-15T08:30:52.797Z,4168.00
2018-09-15T08:31:52.748Z,4172.00
2018-09-15T08:32:52.756Z,4304.00
2018-09-15T08:33:53.094Z,4472.00
2018-09-15T08:34:52.818Z,4556.00
2018-09-15T08:35:52.727Z,4596.00
2018-09-15T08:36:52.716Z,4612.00
2018-09-15T08:37:52.725Z,4516.00
2018-09-15T08:38:52.645Z,4704.00
2018-09-15T08:39:52.688Z,4912.00
2018-09-15T08:40:52.692Z,5040.00
2018-09-15T08:41:52.555Z,5136.00
2018-09-15T08:42:52.507Z,5128.00
2018-09-15T08:43:52.571Z,5108.00
2018-09-15T08:44:54.420Z,5124.00
2018-09-15T08:45:52.518Z,5260.00
2018-09-15T08:46:52.502Z,5324.00
2018-09-15T08:47:52.557Z,5280.00
2018-09-15T08:48:52.542Z,5040.00
2018-09-15T08:49:52.580Z,5092.00
2018-09-15T08:50:52.484Z,5508.00
2018-09-15T08:53:25.611Z,5448.00
2018-09-15T08:54:25.887Z,5792.00
2018-09-15T08:56:19.563Z,5284.00
2018-09-15T08:57:19.877Z,5372.00
2018-09-15T08:59:14.427Z,5128.00
2018-09-15T09:00:16.665Z,5084.00
2018-09-15T09:02:08.337Z,6068.00
2018-09-15T09:03:08.817Z,5948.00
2018-09-15T09:05:03.597Z,5392.00
2018-09-15T09:06:29.416Z,4944.00
2018-09-15T09:07:03.937Z,4292.00
2018-09-15T09:08:03.941Z,3468.00
2018-09-15T09:09:03.932Z,3628.00
2018-09-15T09:10:03.923Z,3340.00
2018-09-15T09:11:03.957Z,3416.00
2018-09-15T09:13:03.967Z,3512.00
2018-09-15T09:14:03.901Z,3460.00
2018-09-15T09:15:03.926Z,3860.00
2018-09-15T09:16:04.453Z,4240.00
2018-09-15T09:17:03.601Z,4660.00
2018-09-15T09:18:04.068Z,5140.00
2018-09-15T09:19:04.464Z,5460.00
2018-09-15T09:20:03.483Z,5396.00
2018-09-15T09:21:04.500Z,5148.00
2018-09-15T09:22:04.121Z,5040.00
2018-09-15T09:23:04.129Z,5256.00
2018-09-15T09:24:03.683Z,5724.00
2018-09-15T09:25:03.930Z,6584.00
2018-09-15T09:26:04.068Z,7352.00
2018-09-15T09:27:03.936Z,7768.00
2018-09-15T09:28:04.165Z,7692.00
2018-09-15T09:29:03.685Z,7892.00
2018-09-15T09:30:04.463Z,8452.00
2018-09-15T09:31:03.361Z,8012.00
2018-09-15T09:32:03.904Z,7628.00
2018-09-15T09:33:03.971Z,7960.00
2018-09-15T09:34:03.949Z,7932.00
2018-09-15T09:35:26.347Z,7888.00
2018-09-15T09:36:04.579Z,8084.00
2018-09-15T09:37:04.250Z,8488.00
2018-09-15T09:38:03.733Z,8436.00
2018-09-15T09:39:03.948Z,7324.00
2018-09-15T09:40:03.929Z,7796.00
2018-09-15T09:41:06.004Z,7344.00
2018-09-15T09:42:03.946Z,7036.00
2018-09-15T09:43:03.948Z,7316.00
2018-09-15T09:44:03.944Z,7008.00
2018-09-15T09:46:50.388Z,6464.00
2018-09-15T09:47:49.105Z,5828.00
2018-09-15T09:48:50.674Z,6232.00
2018-09-15T09:49:51.315Z,5936.00
2018-09-15T09:50:50.167Z,7308.00
2018-09-15T09:51:51.199Z,6808.00
2018-09-15T09:52:50.700Z,5716.00
2018-09-15T09:53:51.199Z,6116.00
2018-09-15T09:54:49.934Z,6276.00
2018-09-15T09:55:50.265Z,6452.00
2018-09-15T09:56:50.744Z,6972.00
2018-09-15T09:57:50.249Z,6140.00
2018-09-15T09:58:50.835Z,5588.00
2018-09-15T09:59:49.900Z,6084.00
2018-09-15T10:00:50.074Z,6600.00
2018-09-15T10:01:50.591Z,7564.00
2018-09-15T10:02:50.155Z,7564.00
2018-09-15T10:03:50.645Z,8048.00
2018-09-15T10:04:50.337Z,8168.00
2018-09-15T10:05:50.705Z,7684.00
2018-09-15T10:06:50.165Z,7648.00
2018-09-15T10:07:50.127Z,8340.00
2018-09-15T10:08:50.656Z,8840.00
2018-09-15T10:09:49.937Z,7284.00
2018-09-15T10:10:50.199Z,6712.00
2018-09-15T10:11:50.713Z,6420.00
2018-09-15T10:12:51.032Z,6460.00
2018-09-15T10:13:50.725Z,7432.00
2018-09-15T10:14:50.244Z,7412.00
2018-09-15T10:16:04.433Z,8524.00
2018-09-15T10:16:50.170Z,9184.00
2018-09-15T10:17:51.862Z,6932.00
2018-09-15T10:18:50.870Z,5156.00
2018-09-15T10:19:50.709Z,3812.00
2018-09-15T10:20:50.733Z,3224.00
2018-09-15T10:21:50.722Z,3220.00
2018-09-15T10:22:52.675Z,3992.00
2018-09-15T10:23:51.431Z,3704.00
2018-09-15T10:24:50.944Z,3232.00
2018-09-15T10:25:51.225Z,3388.00
2018-09-15T10:26:50.718Z,3696.00
2018-09-15T10:27:50.645Z,4240.00
2018-09-15T10:28:50.613Z,4788.00
2018-09-15T10:29:50.654Z,4736.00
2018-09-15T10:30:50.654Z,5020.00
2018-09-15T10:31:50.633Z,5612.00
2018-09-15T10:32:50.636Z,6932.00
2018-09-15T10:33:50.681Z,7664.00
2018-09-15T10:34:50.171Z,8684.00
2018-09-15T10:35:51.288Z,10060.00
2018-09-15T10:36:52.995Z,9144.00
2018-09-15T10:37:50.436Z,9284.00
2018-09-15T10:38:50.645Z,9196.00
2018-09-15T10:39:50.675Z,9456.00
2018-09-15T10:40:50.180Z,8832.00
2018-09-15T10:41:52.679Z,7888.00
2018-09-15T10:42:51.656Z,6332.00
2018-09-15T10:43:50.707Z,4640.00
2018-09-15T10:44:50.669Z,3664.00
2018-09-15T10:45:52.741Z,3116.00
2018-09-15T10:46:50.724Z,3068.00
2018-09-15T10:47:52.476Z,2916.00
2018-09-15T10:48:50.679Z,2796.00
2018-09-15T10:49:50.728Z,2752.00
2018-09-15T10:51:11.724Z,3632.00
2018-09-15T10:51:50.709Z,4688.00
2018-09-15T10:52:50.714Z,5692.00
2018-09-15T10:53:50.672Z,6288.00
2018-09-15T10:54:53.003Z,6452.00
2018-09-15T10:55:50.619Z,6416.00
2018-09-15T10:56:53.365Z,6596.00
2018-09-15T10:57:50.141Z,6112.00
2018-09-15T10:58:51.342Z,5708.00
2018-09-15T10:59:50.977Z,5592.00
2018-09-15T11:00:50.982Z,5824.00
2018-09-15T11:01:52.963Z,5624.00
2018-09-15T11:02:52.136Z,5564.00
2018-09-15T11:03:50.693Z,5484.00
2018-09-15T11:04:50.682Z,5892.00
2018-09-15T11:05:50.713Z,6528.00
2018-09-15T11:06:50.941Z,5992.00
2018-09-15T11:07:50.460Z,6160.00
2018-09-15T11:08:50.893Z,6732.00
2018-09-15T11:09:52.897Z,6404.00
